sensor_id;sensor_type;location;lat;lon;timestamp;P1;durP1;ratioP1;P2;durP2;ratioP2
14554;SDS011;7364;50.870;4.722;2023-04-25T00:01:25;8.90;;;5.20;;
14554;SDS011;7364;50.870;4.722;2023-04-25T00:03:52;14.80;;;5.40;;
14554;SDS011;7364;50.870;4.722;2023-04-25T00:06:20;13.17;;;5.70;;
14554;SDS011;7364;50.870;4.722;2023-04-25T00:08:51;13.87;;;5.70;;
14554;SDS011;7364;50.870;4.722;2023-04-25T00:11:19;10.60;;;4.73;;
14554;SDS011;7364;50.870;4.722;2023-04-25T00:13:47;13.90;;;5.27;;
14554;SDS011;7364;50.870;4.722;2023-04-25T00:16:15;14.47;;;5.63;;
14554;SDS011;7364;50.870;4.722;2023-04-25T00:18:45;14.00;;;4.77;;
14554;SDS011;7364;50.870;4.722;2023-04-25T00:21:16;12.17;;;5.20;;
14554;SDS011;7364;50.870;4.722;2023-04-25T00:23:45;10.00;;;4.87;;
14554;SDS011;7364;50.870;4.722;2023-04-25T00:26:12;13.20;;;4.67;;
14554;SDS011;7364;50.870;4.722;2023-04-25T00:28:40;10.33;;;5.17;;
14554;SDS011;7364;50.870;4.722;2023-04-25T00:31:07;13.73;;;5.67;;
14554;SDS011;7364;50.870;4.722;2023-04-25T00:33:35;13.37;;;6.20;;
14554;SDS011;7364;50.870;4.722;2023-04-25T00:36:04;8.90;;;5.50;;
14554;SDS011;7364;50.870;4.722;2023-04-25T00:38:33;15.47;;;6.73;;
14554;SDS011;7364;50.870;4.722;2023-04-25T00:41:00;12.20;;;6.30;;
14554;SDS011;7364;50.870;4.722;2023-04-25T00:43:28;10.97;;;5.57;;
14554;SDS011;7364;50.870;4.722;2023-04-25T00:45:59;11.60;;;5.73;;
14554;SDS011;7364;50.870;4.722;2023-04-25T00:48:27;13.17;;;6.00;;
14554;SDS011;7364;50.870;4.722;2023-04-25T00:50:56;15.43;;;6.17;;
14554;SDS011;7364;50.870;4.722;2023-04-25T00:53:27;11.47;;;6.00;;
14554;SDS011;7364;50.870;4.722;2023-04-25T00:55:54;10.50;;;5.40;;
14554;SDS011;7364;50.870;4.722;2023-04-25T00:58:22;12.40;;;5.70;;
14554;SDS011;7364;50.870;4.722;2023-04-25T01:00:50;14.50;;;5.67;;
14554;SDS011;7364;50.870;4.722;2023-04-25T01:03:18;10.07;;;4.63;;
14554;SDS011;7364;50.870;4.722;2023-04-25T01:05:46;13.97;;;6.73;;
14554;SDS011;7364;50.870;4.722;2023-04-25T01:08:14;16.90;;;6.70;;
14554;SDS011;7364;50.870;4.722;2023-04-25T01:10:43;10.93;;;5.87;;
14554;SDS011;7364;50.870;4.722;2023-04-25T01:13:10;9.10;;;5.30;;
14554;SDS011;7364;50.870;4.722;2023-04-25T01:15:37;13.43;;;6.00;;
14554;SDS011;7364;50.870;4.722;2023-04-25T01:18:05;12.50;;;5.77;;
14554;SDS011;7364;50.870;4.722;2023-04-25T01:20:33;12.73;;;6.30;;
14554;SDS011;7364;50.870;4.722;2023-04-25T01:23:02;12.77;;;6.50;;
14554;SDS011;7364;50.870;4.722;2023-04-25T01:25:30;10.67;;;6.03;;
14554;SDS011;7364;50.870;4.722;2023-04-25T01:27:59;16.27;;;6.37;;
14554;SDS011;7364;50.870;4.722;2023-04-25T01:30:26;11.77;;;6.70;;
14554;SDS011;7364;50.870;4.722;2023-04-25T01:32:54;9.43;;;6.23;;
14554;SDS011;7364;50.870;4.722;2023-04-25T01:35:22;10.80;;;5.73;;
14554;SDS011;7364;50.870;4.722;2023-04-25T01:37:50;11.73;;;6.67;;
14554;SDS011;7364;50.870;4.722;2023-04-25T01:40:19;9.83;;;5.87;;
14554;SDS011;7364;50.870;4.722;2023-04-25T01:42:48;13.77;;;6.30;;
14554;SDS011;7364;50.870;4.722;2023-04-25T01:45:16;13.80;;;6.20;;
14554;SDS011;7364;50.870;4.722;2023-04-25T01:47:44;11.20;;;5.60;;
14554;SDS011;7364;50.870;4.722;2023-04-25T01:50:14;16.47;;;6.17;;
14554;SDS011;7364;50.870;4.722;2023-04-25T01:52:43;14.07;;;5.33;;
14554;SDS011;7364;50.870;4.722;2023-04-25T01:55:10;10.30;;;5.13;;
14554;SDS011;7364;50.870;4.722;2023-04-25T01:57:39;18.77;;;5.27;;
14554;SDS011;7364;50.870;4.722;2023-04-25T02:00:07;12.83;;;5.10;;
14554;SDS011;7364;50.870;4.722;2023-04-25T02:02:35;11.83;;;5.97;;
14554;SDS011;7364;50.870;4.722;2023-04-25T02:05:02;11.07;;;5.40;;
14554;SDS011;7364;50.870;4.722;2023-04-25T02:07:30;13.03;;;5.50;;
14554;SDS011;7364;50.870;4.722;2023-04-25T02:09:59;11.60;;;4.93;;
14554;SDS011;7364;50.870;4.722;2023-04-25T02:12:26;16.80;;;5.37;;
14554;SDS011;7364;50.870;4.722;2023-04-25T02:14:56;15.70;;;4.90;;
14554;SDS011;7364;50.870;4.722;2023-04-25T02:17:23;8.10;;;4.87;;
14554;SDS011;7364;50.870;4.722;2023-04-25T02:19:51;13.53;;;4.77;;
14554;SDS011;7364;50.870;4.722;2023-04-25T02:22:18;17.37;;;4.63;;
14554;SDS011;7364;50.870;4.722;2023-04-25T02:24:47;20.47;;;5.33;;
14554;SDS011;7364;50.870;4.722;2023-04-25T02:27:14;10.37;;;4.57;;
14554;SDS011;7364;50.870;4.722;2023-04-25T02:29:41;13.67;;;4.80;;
14554;SDS011;7364;50.870;4.722;2023-04-25T02:32:10;9.50;;;4.83;;
14554;SDS011;7364;50.870;4.722;2023-04-25T02:34:37;15.97;;;5.50;;
14554;SDS011;7364;50.870;4.722;2023-04-25T02:37:05;14.30;;;4.40;;
14554;SDS011;7364;50.870;4.722;2023-04-25T02:39:32;13.00;;;5.33;;
14554;SDS011;7364;50.870;4.722;2023-04-25T02:42:00;10.40;;;5.10;;
14554;SDS011;7364;50.870;4.722;2023-04-25T02:44:27;13.73;;;4.83;;
14554;SDS011;7364;50.870;4.722;2023-04-25T02:46:55;10.57;;;4.90;;
14554;SDS011;7364;50.870;4.722;2023-04-25T02:49:24;9.77;;;4.73;;
14554;SDS011;7364;50.870;4.722;2023-04-25T02:51:51;8.27;;;4.40;;
14554;SDS011;7364;50.870;4.722;2023-04-25T02:54:18;12.33;;;5.30;;
14554;SDS011;7364;50.870;4.722;2023-04-25T02:56:46;7.37;;;3.90;;
14554;SDS011;7364;50.870;4.722;2023-04-25T02:59:13;12.60;;;4.83;;
14554;SDS011;7364;50.870;4.722;2023-04-25T03:01:40;16.53;;;5.70;;
14554;SDS011;7364;50.870;4.722;2023-04-25T03:04:08;10.93;;;5.03;;
14554;SDS011;7364;50.870;4.722;2023-04-25T03:06:37;16.00;;;5.30;;
14554;SDS011;7364;50.870;4.722;2023-04-25T03:09:04;15.10;;;5.30;;
14554;SDS011;7364;50.870;4.722;2023-04-25T03:11:32;10.50;;;4.87;;
14554;SDS011;7364;50.870;4.722;2023-04-25T03:13:59;12.67;;;5.83;;
14554;SDS011;7364;50.870;4.722;2023-04-25T03:16:26;17.63;;;5.50;;
14554;SDS011;7364;50.870;4.722;2023-04-25T03:18:54;13.07;;;5.60;;
14554;SDS011;7364;50.870;4.722;2023-04-25T03:21:21;10.93;;;5.40;;
14554;SDS011;7364;50.870;4.722;2023-04-25T03:23:50;11.27;;;5.47;;
14554;SDS011;7364;50.870;4.722;2023-04-25T03:26:17;11.43;;;6.10;;
14554;SDS011;7364;50.870;4.722;2023-04-25T03:28:45;14.33;;;5.73;;
14554;SDS011;7364;50.870;4.722;2023-04-25T03:31:12;10.57;;;5.30;;
14554;SDS011;7364;50.870;4.722;2023-04-25T03:33:39;12.17;;;5.83;;
14554;SDS011;7364;50.870;4.722;2023-04-25T03:36:07;11.57;;;5.20;;
14554;SDS011;7364;50.870;4.722;2023-04-25T03:38:35;10.13;;;4.53;;
14554;SDS011;7364;50.870;4.722;2023-04-25T03:41:04;10.97;;;5.53;;
14554;SDS011;7364;50.870;4.722;2023-04-25T03:43:31;9.43;;;5.27;;
14554;SDS011;7364;50.870;4.722;2023-04-25T03:45:59;13.53;;;5.37;;
14554;SDS011;7364;50.870;4.722;2023-04-25T03:48:27;14.67;;;5.53;;
14554;SDS011;7364;50.870;4.722;2023-04-25T03:50:54;12.20;;;5.73;;
14554;SDS011;7364;50.870;4.722;2023-04-25T03:53:22;11.57;;;4.93;;
14554;SDS011;7364;50.870;4.722;2023-04-25T03:55:49;8.90;;;4.77;;
14554;SDS011;7364;50.870;4.722;2023-04-25T03:58:18;12.10;;;4.40;;
14554;SDS011;7364;50.870;4.722;2023-04-25T04:00:45;16.97;;;5.67;;
14554;SDS011;7364;50.870;4.722;2023-04-25T04:03:13;16.53;;;5.53;;
14554;SDS011;7364;50.870;4.722;2023-04-25T04:05:40;23.93;;;4.60;;
14554;SDS011;7364;50.870;4.722;2023-04-25T04:08:07;19.87;;;5.07;;
14554;SDS011;7364;50.870;4.722;2023-04-25T04:10:35;15.57;;;5.27;;
14554;SDS011;7364;50.870;4.722;2023-04-25T04:13:02;10.17;;;4.53;;
14554;SDS011;7364;50.870;4.722;2023-04-25T04:15:32;12.10;;;4.60;;
14554;SDS011;7364;50.870;4.722;2023-04-25T04:17:59;12.30;;;4.30;;
14554;SDS011;7364;50.870;4.722;2023-04-25T04:20:28;5.53;;;3.60;;
14554;SDS011;7364;50.870;4.722;2023-04-25T04:22:56;8.83;;;4.30;;
14554;SDS011;7364;50.870;4.722;2023-04-25T04:25:23;10.47;;;4.50;;
14554;SDS011;7364;50.870;4.722;2023-04-25T04:27:51;9.03;;;3.87;;
14554;SDS011;7364;50.870;4.722;2023-04-25T04:30:20;10.77;;;4.13;;
14554;SDS011;7364;50.870;4.722;2023-04-25T04:32:50;11.73;;;3.90;;
14554;SDS011;7364;50.870;4.722;2023-04-25T04:35:17;8.40;;;4.13;;
14554;SDS011;7364;50.870;4.722;2023-04-25T04:37:45;17.77;;;5.67;;
14554;SDS011;7364;50.870;4.722;2023-04-25T04:40:13;10.63;;;4.30;;
14554;SDS011;7364;50.870;4.722;2023-04-25T04:42:41;7.83;;;3.70;;
14554;SDS011;7364;50.870;4.722;2023-04-25T04:45:09;11.47;;;4.63;;
14554;SDS011;7364;50.870;4.722;2023-04-25T04:47:37;10.03;;;4.37;;
14554;SDS011;7364;50.870;4.722;2023-04-25T04:50:07;8.17;;;4.23;;
14554;SDS011;7364;50.870;4.722;2023-04-25T04:52:35;10.37;;;4.47;;
14554;SDS011;7364;50.870;4.722;2023-04-25T04:55:03;11.37;;;4.57;;
14554;SDS011;7364;50.870;4.722;2023-04-25T04:57:32;9.97;;;4.87;;
14554;SDS011;7364;50.870;4.722;2023-04-25T05:00:00;9.03;;;3.80;;
14554;SDS011;7364;50.870;4.722;2023-04-25T05:02:28;14.67;;;4.40;;
14554;SDS011;7364;50.870;4.722;2023-04-25T05:04:55;17.20;;;4.93;;
14554;SDS011;7364;50.870;4.722;2023-04-25T05:07:24;10.07;;;4.17;;
14554;SDS011;7364;50.870;4.722;2023-04-25T05:09:52;7.87;;;4.00;;
14554;SDS011;7364;50.870;4.722;2023-04-25T05:12:19;6.33;;;3.93;;
14554;SDS011;7364;50.870;4.722;2023-04-25T05:14:46;10.33;;;4.73;;
14554;SDS011;7364;50.870;4.722;2023-04-25T05:17:14;11.00;;;5.73;;
14554;SDS011;7364;50.870;4.722;2023-04-25T05:19:41;11.20;;;7.57;;
14554;SDS011;7364;50.870;4.722;2023-04-25T05:22:09;8.87;;;4.87;;
14554;SDS011;7364;50.870;4.722;2023-04-25T05:24:37;12.53;;;5.27;;
14554;SDS011;7364;50.870;4.722;2023-04-25T05:27:05;12.33;;;4.97;;
14554;SDS011;7364;50.870;4.722;2023-04-25T05:29:32;17.10;;;4.87;;
14554;SDS011;7364;50.870;4.722;2023-04-25T05:32:00;20.63;;;5.57;;
14554;SDS011;7364;50.870;4.722;2023-04-25T05:34:27;12.40;;;4.40;;
14554;SDS011;7364;50.870;4.722;2023-04-25T05:36:55;11.60;;;5.07;;
14554;SDS011;7364;50.870;4.722;2023-04-25T05:39:22;9.23;;;4.90;;
14554;SDS011;7364;50.870;4.722;2023-04-25T05:41:51;12.30;;;5.43;;
14554;SDS011;7364;50.870;4.722;2023-04-25T05:44:18;14.27;;;5.30;;
14554;SDS011;7364;50.870;4.722;2023-04-25T05:46:46;21.93;;;6.07;;
14554;SDS011;7364;50.870;4.722;2023-04-25T05:49:13;9.13;;;4.70;;
14554;SDS011;7364;50.870;4.722;2023-04-25T05:51:41;16.60;;;5.53;;
14554;SDS011;7364;50.870;4.722;2023-04-25T05:54:08;10.40;;;4.10;;
14554;SDS011;7364;50.870;4.722;2023-04-25T05:56:37;14.75;;;6.88;;
14554;SDS011;7364;50.870;4.722;2023-04-25T05:59:06;8.37;;;4.97;;
14554;SDS011;7364;50.870;4.722;2023-04-25T06:01:33;12.50;;;6.30;;
14554;SDS011;7364;50.870;4.722;2023-04-25T06:04:01;18.00;;;5.43;;
14554;SDS011;7364;50.870;4.722;2023-04-25T06:06:28;16.10;;;6.20;;
14554;SDS011;7364;50.870;4.722;2023-04-25T06:08:55;10.40;;;5.27;;
14554;SDS011;7364;50.870;4.722;2023-04-25T06:11:23;21.50;;;6.10;;
14554;SDS011;7364;50.870;4.722;2023-04-25T06:13:50;12.50;;;6.00;;
14554;SDS011;7364;50.870;4.722;2023-04-25T06:16:18;14.67;;;6.33;;
14554;SDS011;7364;50.870;4.722;2023-04-25T06:18:46;11.33;;;6.00;;
14554;SDS011;7364;50.870;4.722;2023-04-25T06:21:13;12.90;;;5.80;;
14554;SDS011;7364;50.870;4.722;2023-04-25T06:23:40;16.03;;;5.77;;
14554;SDS011;7364;50.870;4.722;2023-04-25T06:26:07;10.37;;;5.67;;
14554;SDS011;7364;50.870;4.722;2023-04-25T06:28:35;19.30;;;6.07;;
14554;SDS011;7364;50.870;4.722;2023-04-25T06:31:02;13.70;;;6.87;;
14554;SDS011;7364;50.870;4.722;2023-04-25T06:33:31;9.17;;;5.57;;
14554;SDS011;7364;50.870;4.722;2023-04-25T06:35:58;13.30;;;6.20;;
14554;SDS011;7364;50.870;4.722;2023-04-25T06:38:25;8.93;;;4.93;;
14554;SDS011;7364;50.870;4.722;2023-04-25T06:40:53;10.23;;;4.67;;
14554;SDS011;7364;50.870;4.722;2023-04-25T06:43:20;10.17;;;5.23;;
14554;SDS011;7364;50.870;4.722;2023-04-25T06:45:47;16.83;;;5.23;;
14554;SDS011;7364;50.870;4.722;2023-04-25T06:48:15;12.77;;;5.57;;
14554;SDS011;7364;50.870;4.722;2023-04-25T06:50:45;15.63;;;5.17;;
14554;SDS011;7364;50.870;4.722;2023-04-25T06:53:12;11.53;;;5.57;;
14554;SDS011;7364;50.870;4.722;2023-04-25T06:55:40;10.27;;;6.53;;
14554;SDS011;7364;50.870;4.722;2023-04-25T06:58:07;10.07;;;5.67;;
14554;SDS011;7364;50.870;4.722;2023-04-25T07:00:35;11.43;;;5.43;;
14554;SDS011;7364;50.870;4.722;2023-04-25T07:03:03;9.23;;;4.27;;
14554;SDS011;7364;50.870;4.722;2023-04-25T07:05:30;12.37;;;5.97;;
14554;SDS011;7364;50.870;4.722;2023-04-25T07:07:59;20.43;;;7.77;;
14554;SDS011;7364;50.870;4.722;2023-04-25T07:10:26;25.77;;;7.50;;
14554;SDS011;7364;50.870;4.722;2023-04-25T07:12:54;12.93;;;6.77;;
14554;SDS011;7364;50.870;4.722;2023-04-25T07:15:24;13.10;;;5.87;;
14554;SDS011;7364;50.870;4.722;2023-04-25T07:17:52;15.10;;;5.13;;
14554;SDS011;7364;50.870;4.722;2023-04-25T07:20:19;9.80;;;4.77;;
14554;SDS011;7364;50.870;4.722;2023-04-25T07:22:46;12.50;;;5.10;;
14554;SDS011;7364;50.870;4.722;2023-04-25T07:25:16;13.87;;;5.23;;
14554;SDS011;7364;50.870;4.722;2023-04-25T07:27:44;10.07;;;4.97;;
14554;SDS011;7364;50.870;4.722;2023-04-25T07:30:11;10.10;;;4.30;;
14554;SDS011;7364;50.870;4.722;2023-04-25T07:32:39;12.87;;;4.13;;
14554;SDS011;7364;50.870;4.722;2023-04-25T07:35:07;9.13;;;4.33;;
14554;SDS011;7364;50.870;4.722;2023-04-25T07:37:35;9.10;;;4.23;;
14554;SDS011;7364;50.870;4.722;2023-04-25T07:40:02;13.10;;;5.13;;
14554;SDS011;7364;50.870;4.722;2023-04-25T07:42:32;14.33;;;4.27;;
14554;SDS011;7364;50.870;4.722;2023-04-25T07:44:59;7.33;;;3.87;;
14554;SDS011;7364;50.870;4.722;2023-04-25T07:47:27;7.77;;;4.50;;
14554;SDS011;7364;50.870;4.722;2023-04-25T07:49:55;10.90;;;4.33;;
14554;SDS011;7364;50.870;4.722;2023-04-25T07:52:23;6.77;;;4.03;;
14554;SDS011;7364;50.870;4.722;2023-04-25T07:54:50;13.57;;;4.90;;
14554;SDS011;7364;50.870;4.722;2023-04-25T07:57:20;11.87;;;5.03;;
14554;SDS011;7364;50.870;4.722;2023-04-25T07:59:51;11.87;;;4.07;;
14554;SDS011;7364;50.870;4.722;2023-04-25T08:02:19;7.33;;;4.20;;
14554;SDS011;7364;50.870;4.722;2023-04-25T08:04:47;10.33;;;3.97;;
14554;SDS011;7364;50.870;4.722;2023-04-25T08:07:15;8.80;;;4.43;;
14554;SDS011;7364;50.870;4.722;2023-04-25T08:09:43;11.43;;;4.40;;
14554;SDS011;7364;50.870;4.722;2023-04-25T08:12:10;7.97;;;4.27;;
14554;SDS011;7364;50.870;4.722;2023-04-25T08:14:37;11.33;;;4.43;;
14554;SDS011;7364;50.870;4.722;2023-04-25T08:17:06;12.07;;;4.90;;
14554;SDS011;7364;50.870;4.722;2023-04-25T08:19:33;7.83;;;4.17;;
14554;SDS011;7364;50.870;4.722;2023-04-25T08:22:01;12.37;;;4.67;;
14554;SDS011;7364;50.870;4.722;2023-04-25T08:24:28;6.17;;;3.30;;
14554;SDS011;7364;50.870;4.722;2023-04-25T08:26:56;9.60;;;3.83;;
14554;SDS011;7364;50.870;4.722;2023-04-25T08:29:24;9.60;;;3.90;;
14554;SDS011;7364;50.870;4.722;2023-04-25T08:31:51;11.20;;;4.63;;
14554;SDS011;7364;50.870;4.722;2023-04-25T08:34:20;11.73;;;3.43;;
14554;SDS011;7364;50.870;4.722;2023-04-25T08:36:47;8.20;;;4.33;;
14554;SDS011;7364;50.870;4.722;2023-04-25T08:39:15;8.07;;;3.43;;
14554;SDS011;7364;50.870;4.722;2023-04-25T08:41:42;7.20;;;3.00;;
14554;SDS011;7364;50.870;4.722;2023-04-25T08:44:13;8.20;;;3.30;;
14554;SDS011;7364;50.870;4.722;2023-04-25T08:46:41;7.43;;;3.37;;
14554;SDS011;7364;50.870;4.722;2023-04-25T08:49:08;12.43;;;4.13;;
14554;SDS011;7364;50.870;4.722;2023-04-25T08:51:44;7.47;;;3.17;;
14554;SDS011;7364;50.870;4.722;2023-04-25T08:54:13;9.97;;;3.30;;
14554;SDS011;7364;50.870;4.722;2023-04-25T08:56:43;7.07;;;3.27;;
14554;SDS011;7364;50.870;4.722;2023-04-25T08:59:11;8.57;;;3.53;;
14554;SDS011;7364;50.870;4.722;2023-04-25T09:01:39;11.57;;;3.47;;
14554;SDS011;7364;50.870;4.722;2023-04-25T09:04:07;12.93;;;3.93;;
14554;SDS011;7364;50.870;4.722;2023-04-25T09:06:34;5.77;;;3.27;;
14554;SDS011;7364;50.870;4.722;2023-04-25T09:09:05;4.93;;;3.00;;
14554;SDS011;7364;50.870;4.722;2023-04-25T09:11:34;8.90;;;3.57;;
14554;SDS011;7364;50.870;4.722;2023-04-25T09:14:12;9.67;;;3.13;;
14554;SDS011;7364;50.870;4.722;2023-04-25T09:19:30;11.10;;;3.27;;
14554;SDS011;7364;50.870;4.722;2023-04-25T09:22:02;12.03;;;3.57;;
14554;SDS011;7364;50.870;4.722;2023-04-25T09:24:36;10.63;;;3.23;;
14554;SDS011;7364;50.870;4.722;2023-04-25T09:27:05;5.20;;;3.20;;
14554;SDS011;7364;50.870;4.722;2023-04-25T09:29:33;9.50;;;3.30;;
14554;SDS011;7364;50.870;4.722;2023-04-25T09:32:12;12.17;;;3.10;;
14554;SDS011;7364;50.870;4.722;2023-04-25T09:34:42;7.37;;;3.33;;
14554;SDS011;7364;50.870;4.722;2023-04-25T09:37:10;7.13;;;2.97;;
14554;SDS011;7364;50.870;4.722;2023-04-25T09:39:39;11.73;;;3.23;;
14554;SDS011;7364;50.870;4.722;2023-04-25T09:42:06;4.47;;;2.63;;
14554;SDS011;7364;50.870;4.722;2023-04-25T09:44:36;4.97;;;2.77;;
14554;SDS011;7364;50.870;4.722;2023-04-25T09:47:03;6.43;;;2.40;;
14554;SDS011;7364;50.870;4.722;2023-04-25T09:49:38;4.90;;;2.03;;
14554;SDS011;7364;50.870;4.722;2023-04-25T09:52:08;7.90;;;2.53;;
14554;SDS011;7364;50.870;4.722;2023-04-25T09:54:41;5.23;;;2.60;;
14554;SDS011;7364;50.870;4.722;2023-04-25T09:57:12;9.27;;;3.43;;
14554;SDS011;7364;50.870;4.722;2023-04-25T09:59:43;4.43;;;2.10;;
14554;SDS011;7364;50.870;4.722;2023-04-25T10:02:11;9.53;;;3.10;;
14554;SDS011;7364;50.870;4.722;2023-04-25T10:04:41;10.97;;;2.80;;
14554;SDS011;7364;50.870;4.722;2023-04-25T10:07:10;7.10;;;2.77;;
14554;SDS011;7364;50.870;4.722;2023-04-25T10:09:39;4.80;;;2.10;;
14554;SDS011;7364;50.870;4.722;2023-04-25T10:12:08;4.63;;;2.10;;
14554;SDS011;7364;50.870;4.722;2023-04-25T10:14:36;6.03;;;1.77;;
14554;SDS011;7364;50.870;4.722;2023-04-25T10:17:03;3.27;;;1.70;;
14554;SDS011;7364;50.870;4.722;2023-04-25T10:19:31;4.23;;;2.00;;
14554;SDS011;7364;50.870;4.722;2023-04-25T10:22:03;4.13;;;1.37;;
14554;SDS011;7364;50.870;4.722;2023-04-25T10:24:34;3.27;;;1.70;;
14554;SDS011;7364;50.870;4.722;2023-04-25T10:27:03;3.70;;;1.77;;
14554;SDS011;7364;50.870;4.722;2023-04-25T10:29:31;3.73;;;1.67;;
14554;SDS011;7364;50.870;4.722;2023-04-25T10:31:58;3.60;;;1.70;;
14554;SDS011;7364;50.870;4.722;2023-04-25T10:34:37;6.13;;;1.93;;
14554;SDS011;7364;50.870;4.722;2023-04-25T10:37:05;5.70;;;1.70;;
14554;SDS011;7364;50.870;4.722;2023-04-25T10:39:35;4.83;;;1.63;;
14554;SDS011;7364;50.870;4.722;2023-04-25T10:42:06;3.77;;;1.70;;
14554;SDS011;7364;50.870;4.722;2023-04-25T10:44:34;4.47;;;1.70;;
14554;SDS011;7364;50.870;4.722;2023-04-25T10:47:05;5.30;;;1.30;;
14554;SDS011;7364;50.870;4.722;2023-04-25T10:49:35;4.77;;;1.80;;
14554;SDS011;7364;50.870;4.722;2023-04-25T10:52:16;4.27;;;1.47;;
14554;SDS011;7364;50.870;4.722;2023-04-25T10:54:46;3.13;;;1.80;;
14554;SDS011;7364;50.870;4.722;2023-04-25T10:57:29;3.73;;;2.00;;
14554;SDS011;7364;50.870;4.722;2023-04-25T11:00:09;4.50;;;1.50;;
14554;SDS011;7364;50.870;4.722;2023-04-25T11:02:43;2.13;;;1.37;;
14554;SDS011;7364;50.870;4.722;2023-04-25T11:05:22;3.80;;;1.37;;
14554;SDS011;7364;50.870;4.722;2023-04-25T11:07:58;4.17;;;1.33;;
14554;SDS011;7364;50.870;4.722;2023-04-25T11:10:26;4.13;;;1.50;;
14554;SDS011;7364;50.870;4.722;2023-04-25T11:12:55;3.50;;;1.77;;
14554;SDS011;7364;50.870;4.722;2023-04-25T11:15:23;2.83;;;1.57;;
14554;SDS011;7364;50.870;4.722;2023-04-25T11:17:51;7.60;;;2.00;;
14554;SDS011;7364;50.870;4.722;2023-04-25T11:20:20;3.07;;;1.47;;
14554;SDS011;7364;50.870;4.722;2023-04-25T11:22:51;7.37;;;1.97;;
14554;SDS011;7364;50.870;4.722;2023-04-25T11:25:19;3.87;;;2.13;;
14554;SDS011;7364;50.870;4.722;2023-04-25T11:27:49;4.00;;;2.17;;
14554;SDS011;7364;50.870;4.722;2023-04-25T11:30:19;3.30;;;1.87;;
14554;SDS011;7364;50.870;4.722;2023-04-25T11:32:47;4.17;;;2.20;;
14554;SDS011;7364;50.870;4.722;2023-04-25T11:35:15;4.57;;;2.17;;
14554;SDS011;7364;50.870;4.722;2023-04-25T11:37:43;6.17;;;2.37;;
14554;SDS011;7364;50.870;4.722;2023-04-25T11:40:11;4.67;;;1.97;;
14554;SDS011;7364;50.870;4.722;2023-04-25T11:42:38;4.63;;;2.10;;
14554;SDS011;7364;50.870;4.722;2023-04-25T11:45:11;6.97;;;1.93;;
14554;SDS011;7364;50.870;4.722;2023-04-25T11:47:41;7.23;;;2.20;;
14554;SDS011;7364;50.870;4.722;2023-04-25T11:50:08;6.30;;;2.17;;
14554;SDS011;7364;50.870;4.722;2023-04-25T11:52:37;4.43;;;1.50;;
14554;SDS011;7364;50.870;4.722;2023-04-25T11:55:06;3.90;;;2.20;;
14554;SDS011;7364;50.870;4.722;2023-04-25T11:57:35;3.60;;;1.77;;
14554;SDS011;7364;50.870;4.722;2023-04-25T12:00:10;3.67;;;1.93;;
14554;SDS011;7364;50.870;4.722;2023-04-25T12:02:43;4.33;;;2.50;;
14554;SDS011;7364;50.870;4.722;2023-04-25T12:05:13;5.97;;;2.50;;
14554;SDS011;7364;50.870;4.722;2023-04-25T12:07:41;7.30;;;2.20;;
14554;SDS011;7364;50.870;4.722;2023-04-25T12:10:10;7.27;;;2.53;;
14554;SDS011;7364;50.870;4.722;2023-04-25T12:12:41;5.20;;;1.70;;
14554;SDS011;7364;50.870;4.722;2023-04-25T12:15:09;5.67;;;2.53;;
14554;SDS011;7364;50.870;4.722;2023-04-25T12:17:40;3.67;;;1.53;;
14554;SDS011;7364;50.870;4.722;2023-04-25T12:20:11;6.43;;;2.37;;
14554;SDS011;7364;50.870;4.722;2023-04-25T12:22:40;5.13;;;2.10;;
14554;SDS011;7364;50.870;4.722;2023-04-25T12:25:09;5.60;;;1.93;;
14554;SDS011;7364;50.870;4.722;2023-04-25T12:27:37;4.73;;;2.00;;
14554;SDS011;7364;50.870;4.722;2023-04-25T12:30:07;6.40;;;2.27;;
14554;SDS011;7364;50.870;4.722;2023-04-25T12:32:35;3.83;;;1.77;;
14554;SDS011;7364;50.870;4.722;2023-04-25T12:35:03;3.37;;;1.80;;
14554;SDS011;7364;50.870;4.722;2023-04-25T12:37:33;4.23;;;2.10;;
14554;SDS011;7364;50.870;4.722;2023-04-25T12:40:00;5.97;;;2.43;;
14554;SDS011;7364;50.870;4.722;2023-04-25T12:42:29;3.10;;;1.93;;
14554;SDS011;7364;50.870;4.722;2023-04-25T12:44:56;8.50;;;2.53;;
14554;SDS011;7364;50.870;4.722;2023-04-25T12:47:23;4.67;;;1.80;;
14554;SDS011;7364;50.870;4.722;2023-04-25T12:49:51;3.03;;;1.53;;
14554;SDS011;7364;50.870;4.722;2023-04-25T12:52:18;3.33;;;2.07;;
14554;SDS011;7364;50.870;4.722;2023-04-25T12:54:47;6.27;;;2.07;;
14554;SDS011;7364;50.870;4.722;2023-04-25T12:57:14;7.00;;;1.97;;
14554;SDS011;7364;50.870;4.722;2023-04-25T12:59:46;3.67;;;1.90;;
14554;SDS011;7364;50.870;4.722;2023-04-25T13:02:13;3.73;;;1.50;;
14554;SDS011;7364;50.870;4.722;2023-04-25T13:04:40;2.90;;;1.40;;
14554;SDS011;7364;50.870;4.722;2023-04-25T13:07:07;2.50;;;1.43;;
14554;SDS011;7364;50.870;4.722;2023-04-25T13:09:35;2.87;;;1.77;;
14554;SDS011;7364;50.870;4.722;2023-04-25T13:12:04;3.70;;;1.90;;
14554;SDS011;7364;50.870;4.722;2023-04-25T13:14:31;3.67;;;1.70;;
14554;SDS011;7364;50.870;4.722;2023-04-25T13:16:58;4.53;;;1.93;;
14554;SDS011;7364;50.870;4.722;2023-04-25T13:19:26;5.37;;;1.70;;
14554;SDS011;7364;50.870;4.722;2023-04-25T13:21:53;3.67;;;1.47;;
14554;SDS011;7364;50.870;4.722;2023-04-25T13:24:21;4.47;;;1.90;;
14554;SDS011;7364;50.870;4.722;2023-04-25T13:26:48;6.40;;;1.73;;
14554;SDS011;7364;50.870;4.722;2023-04-25T13:29:17;3.00;;;1.80;;
14554;SDS011;7364;50.870;4.722;2023-04-25T13:31:44;4.07;;;1.50;;
14554;SDS011;7364;50.870;4.722;2023-04-25T13:34:15;4.93;;;1.90;;
14554;SDS011;7364;50.870;4.722;2023-04-25T13:36:42;4.57;;;2.07;;
14554;SDS011;7364;50.870;4.722;2023-04-25T13:39:10;4.40;;;1.90;;
14554;SDS011;7364;50.870;4.722;2023-04-25T13:41:38;3.23;;;1.70;;
14554;SDS011;7364;50.870;4.722;2023-04-25T13:44:06;4.93;;;2.03;;
14554;SDS011;7364;50.870;4.722;2023-04-25T13:46:35;4.77;;;2.27;;
14554;SDS011;7364;50.870;4.722;2023-04-25T13:49:02;5.13;;;1.87;;
14554;SDS011;7364;50.870;4.722;2023-04-25T13:51:30;4.40;;;2.17;;
14554;SDS011;7364;50.870;4.722;2023-04-25T13:53:57;4.23;;;1.80;;
14554;SDS011;7364;50.870;4.722;2023-04-25T13:56:24;3.67;;;1.60;;
14554;SDS011;7364;50.870;4.722;2023-04-25T13:58:52;4.33;;;2.57;;
14554;SDS011;7364;50.870;4.722;2023-04-25T14:01:20;4.07;;;2.13;;
14554;SDS011;7364;50.870;4.722;2023-04-25T14:03:49;3.50;;;2.10;;
14554;SDS011;7364;50.870;4.722;2023-04-25T14:06:16;2.50;;;1.67;;
14554;SDS011;7364;50.870;4.722;2023-04-25T14:08:48;4.40;;;1.93;;
14554;SDS011;7364;50.870;4.722;2023-04-25T14:11:15;3.10;;;2.00;;
14554;SDS011;7364;50.870;4.722;2023-04-25T14:13:43;4.27;;;1.70;;
14554;SDS011;7364;50.870;4.722;2023-04-25T14:16:11;3.40;;;1.87;;
14554;SDS011;7364;50.870;4.722;2023-04-25T14:18:38;5.47;;;2.00;;
14554;SDS011;7364;50.870;4.722;2023-04-25T14:21:07;3.63;;;1.47;;
14554;SDS011;7364;50.870;4.722;2023-04-25T14:23:35;3.53;;;1.90;;
14554;SDS011;7364;50.870;4.722;2023-04-25T14:26:03;2.57;;;1.63;;
14554;SDS011;7364;50.870;4.722;2023-04-25T14:28:31;4.80;;;1.70;;
14554;SDS011;7364;50.870;4.722;2023-04-25T14:31:02;4.10;;;2.03;;
14554;SDS011;7364;50.870;4.722;2023-04-25T14:33:30;3.63;;;1.80;;
14554;SDS011;7364;50.870;4.722;2023-04-25T14:35:57;4.87;;;1.83;;
14554;SDS011;7364;50.870;4.722;2023-04-25T14:38:26;2.30;;;1.53;;
14554;SDS011;7364;50.870;4.722;2023-04-25T14:40:53;3.53;;;1.53;;
14554;SDS011;7364;50.870;4.722;2023-04-25T14:43:20;4.67;;;1.80;;
14554;SDS011;7364;50.870;4.722;2023-04-25T14:45:47;4.10;;;1.70;;
14554;SDS011;7364;50.870;4.722;2023-04-25T14:48:15;5.33;;;1.90;;
14554;SDS011;7364;50.870;4.722;2023-04-25T14:50:44;4.40;;;1.57;;
14554;SDS011;7364;50.870;4.722;2023-04-25T14:53:12;4.27;;;1.87;;
14554;SDS011;7364;50.870;4.722;2023-04-25T14:55:41;2.90;;;1.73;;
14554;SDS011;7364;50.870;4.722;2023-04-25T14:58:08;4.33;;;1.60;;
14554;SDS011;7364;50.870;4.722;2023-04-25T15:00:35;2.90;;;1.50;;
14554;SDS011;7364;50.870;4.722;2023-04-25T15:03:03;2.90;;;1.77;;
14554;SDS011;7364;50.870;4.722;2023-04-25T15:05:32;3.50;;;1.70;;